Overview Statistics Trail Chart Weather Telemetry Raw packets
 

This is the latest recevied weather packets stored in our database for station/object N3LF. If no packets are shown the sender has not sent any weather packets the latest 10 day(s).

<< 51 52 53 54 55 56 57 >>
Time Temp. Humidity Pressure Rain* Wind** Luminosity Snow
1788276806 32.78° C 65% 1022.5 hPa 0 mm - 538 W/m² -
1788276505 32.78° C 64% 1022.8 hPa 0 mm - 527 W/m² -
1788276204 32.22° C 66% 1022.6 hPa 0 mm - 521 W/m² -
1788275900 32.78° C 66% 1022.6 hPa 0 mm - 508 W/m² -
1788275594 32.22° C 66% 1022.7 hPa 0 mm - 496 W/m² -
1788275294 32.78° C 67% 1022.4 hPa 0 mm - 485 W/m² -
1788274992 32.22° C 67% 1022.6 hPa 0 mm - 474 W/m² -
1788274690 31.67° C 68% 1022.6 hPa 0 mm - 462 W/m² -
1788274389 31.67° C 67% 1022.5 hPa 0 mm - 450 W/m² -
1788274085 31.11° C 72% 1022.5 hPa 0 mm - 436 W/m² -
1788273781 31.67° C 71% 1022.7 hPa 0 mm - 423 W/m² -
1788273476 31.67° C 70% 1022.5 hPa 0 mm - 410 W/m² -
1788273172 31.11° C 77% 1022.6 hPa 0 mm - 397 W/m² -
1788272868 30.56° C 80% 1022.6 hPa 0 mm - 385 W/m² -
1788272567 30° C 82% 1022.5 hPa 0 mm - 373 W/m² -
1788272263 29.44° C 83% 1022.7 hPa 0 mm - 359 W/m² -
1788271963 28.89° C 84% 1022.8 hPa 0 mm - 346 W/m² -
1788271662 30° C 82% 1022.8 hPa 0 mm - 332 W/m² -
1788271360 30° C 79% 1022.7 hPa 0 mm - 316 W/m² -
1788271056 28.89° C 84% 1022.7 hPa 0 mm - 303 W/m² -
1788270756 28.33° C 85% 1022.7 hPa 0 mm - 287 W/m² -
1788270452 28.33° C 85% 1022.7 hPa 0 mm - 273 W/m² -
1788270151 27.78° C 86% 1022.6 hPa 0 mm - 260 W/m² -
1788269851 27.78° C 87% 1022.7 hPa 0 mm - 246 W/m² -
1788269551 27.22° C 89% 1022.7 hPa 0 mm - 237 W/m² -

* Rain latest hour (hover to see other rain measurements)
** Current wind speed in m/s (hover to see current wind gust speed)